createdAt,value
2019-04-25T00:02:02.279Z,14.90
2019-04-25T00:04:31.505Z,14.80
2019-04-25T00:07:02.236Z,14.80
2019-04-25T00:09:37.584Z,14.80
2019-04-25T00:12:06.331Z,14.70
2019-04-25T00:14:34.793Z,14.80
2019-04-25T00:17:05.695Z,14.80
2019-04-25T00:19:34.892Z,14.80
2019-04-25T00:22:11.814Z,14.80
2019-04-25T00:24:58.616Z,14.80
2019-04-25T00:27:27.264Z,14.90
2019-04-25T00:29:56.474Z,14.80
2019-04-25T00:32:25.038Z,14.80
2019-04-25T00:34:53.436Z,14.80
2019-04-25T00:37:22.543Z,14.80
2019-04-25T00:39:51.698Z,14.70
2019-04-25T00:42:20.807Z,14.70
2019-04-25T00:44:49.570Z,14.70
2019-04-25T00:47:18.142Z,14.70
2019-04-25T00:49:46.542Z,14.70
2019-04-25T00:52:15.122Z,14.70
2019-04-25T00:54:44.192Z,14.60
2019-04-25T00:57:20.183Z,14.60
2019-04-25T00:59:58.164Z,14.60
2019-04-25T01:02:32.089Z,14.60
2019-04-25T01:05:01.887Z,14.60
2019-04-25T01:07:32.387Z,14.60
2019-04-25T01:10:02.462Z,14.60
2019-04-25T01:12:31.421Z,14.70
2019-04-25T01:15:01.677Z,14.70
2019-04-25T01:17:31.432Z,14.70
2019-04-25T01:20:01.902Z,14.70
2019-04-25T01:22:30.290Z,14.70
2019-04-25T01:25:00.489Z,14.70
2019-04-25T01:27:28.940Z,14.70
2019-04-25T01:29:57.411Z,14.70
2019-04-25T01:32:35.977Z,14.70
2019-04-25T01:35:38.741Z,14.70
2019-04-25T01:38:29.294Z,14.70
2019-04-25T01:41:18.098Z,14.60
2019-04-25T01:43:57.663Z,14.70
2019-04-25T01:46:27.051Z,14.70
2019-04-25T01:48:56.543Z,14.60
2019-04-25T01:51:25.023Z,14.60
2019-04-25T01:53:54.865Z,14.50
2019-04-25T01:56:24.795Z,14.50
2019-04-25T01:58:54.519Z,14.40
2019-04-25T02:01:24.169Z,14.30
2019-04-25T02:03:54.154Z,14.30
2019-04-25T02:06:24.735Z,14.20
2019-04-25T02:08:54.937Z,14.20
2019-04-25T02:11:41.947Z,14.20
2019-04-25T02:14:11.130Z,14.10
2019-04-25T02:16:39.613Z,14.10
2019-04-25T02:19:08.612Z,14.00
2019-04-25T02:21:36.981Z,13.90
2019-04-25T02:24:05.822Z,13.90
2019-04-25T02:26:34.519Z,13.90
2019-04-25T02:29:04.706Z,13.90
2019-04-25T02:31:34.840Z,13.80
2019-04-25T02:34:08.212Z,13.80
2019-04-25T02:36:34.805Z,13.80
2019-04-25T02:39:15.652Z,13.70
2019-04-25T02:41:44.576Z,13.70
2019-04-25T02:44:14.565Z,13.70
2019-04-25T02:47:03.285Z,13.60
2019-04-25T02:49:59.009Z,13.60
2019-04-25T02:52:39.556Z,13.60
2019-04-25T02:55:10.639Z,13.50
2019-04-25T02:57:40.285Z,13.50
2019-04-25T03:00:20.476Z,13.50
2019-04-25T03:02:48.945Z,13.40
2019-04-25T03:05:17.327Z,13.40
2019-04-25T03:07:46.012Z,13.40
2019-04-25T03:10:15.028Z,13.40
2019-04-25T03:12:44.743Z,13.40
2019-04-25T03:15:14.443Z,13.40
2019-04-25T03:17:44.411Z,13.40
2019-04-25T03:20:29.326Z,13.50
2019-04-25T03:23:07.268Z,13.50
2019-04-25T03:25:34.668Z,13.30
2019-04-25T03:28:05.944Z,13.30
2019-04-25T03:30:35.479Z,13.30
2019-04-25T03:33:09.732Z,13.30
2019-04-25T03:35:34.624Z,13.30
2019-04-25T03:38:04.533Z,13.30
2019-04-25T03:40:34.034Z,13.30
2019-04-25T03:43:04.750Z,13.20
2019-04-25T03:45:33.281Z,13.20
2019-04-25T03:48:01.981Z,13.20
2019-04-25T03:50:30.436Z,13.20
2019-04-25T03:52:58.822Z,13.10
2019-04-25T03:55:27.177Z,13.10
2019-04-25T03:57:55.687Z,13.10
2019-04-25T04:00:24.185Z,13.10
2019-04-25T04:02:53.713Z,13.10
2019-04-25T04:05:23.383Z,13.10
2019-04-25T04:07:53.543Z,13.10
2019-04-25T04:10:23.281Z,13.10
2019-04-25T04:12:51.831Z,13.10
2019-04-25T04:15:20.522Z,13.10
2019-04-25T04:17:58.717Z,13.00
2019-04-25T04:20:41.319Z,13.00
2019-04-25T04:23:23.169Z,13.00
2019-04-25T04:25:53.273Z,13.00
2019-04-25T04:28:23.635Z,13.00
2019-04-25T04:30:53.973Z,13.00
2019-04-25T04:33:31.986Z,13.00
2019-04-25T04:35:55.339Z,13.00
2019-04-25T04:38:24.826Z,12.90
2019-04-25T04:40:55.143Z,13.00
2019-04-25T04:43:25.531Z,13.00
2019-04-25T04:45:54.283Z,12.90
2019-04-25T04:48:23.269Z,12.90
2019-04-25T04:50:53.428Z,12.90
2019-04-25T04:53:23.499Z,12.90
2019-04-25T04:55:52.245Z,12.90
2019-04-25T04:58:20.724Z,13.00
2019-04-25T05:00:49.300Z,12.90
2019-04-25T05:03:49.227Z,12.90
2019-04-25T05:06:25.183Z,12.90
2019-04-25T05:09:03.314Z,12.90
2019-04-25T05:11:33.533Z,13.00
2019-04-25T05:14:02.164Z,13.10
2019-04-25T05:16:30.620Z,13.20
2019-04-25T05:18:59.005Z,13.30
2019-04-25T05:21:27.459Z,13.40
2019-04-25T05:23:55.832Z,13.50
2019-04-25T05:26:25.056Z,13.50
2019-04-25T05:28:54.951Z,13.60
2019-04-25T05:31:43.936Z,13.60
2019-04-25T05:34:15.749Z,13.60
2019-04-25T05:36:43.916Z,13.60
2019-04-25T05:39:15.243Z,13.70
2019-04-25T05:42:04.609Z,13.70
2019-04-25T05:44:34.452Z,13.80
2019-04-25T05:47:04.252Z,13.90
2019-04-25T05:49:34.262Z,14.00
2019-04-25T05:52:04.595Z,14.00
2019-04-25T05:54:34.399Z,14.10
2019-04-25T05:57:03.721Z,14.20
2019-04-25T05:59:33.722Z,14.20
2019-04-25T06:02:04.177Z,14.30
2019-04-25T06:04:33.582Z,14.30
2019-04-25T06:07:02.769Z,14.30
2019-04-25T06:09:54.509Z,14.40
2019-04-25T06:12:33.614Z,14.40
2019-04-25T06:15:03.016Z,14.50
2019-04-25T06:17:40.101Z,14.60
2019-04-25T06:20:09.691Z,14.70
2019-04-25T06:22:58.467Z,14.70
2019-04-25T06:25:32.982Z,14.80
2019-04-25T06:28:01.265Z,14.90
2019-04-25T06:30:31.590Z,14.90
2019-04-25T06:33:00.462Z,15.00
2019-04-25T06:35:29.588Z,15.10
2019-04-25T06:37:58.348Z,15.20
2019-04-25T06:40:30.375Z,15.30
2019-04-25T06:42:58.256Z,15.40
2019-04-25T06:45:59.094Z,15.40
2019-04-25T06:48:55.788Z,15.50
2019-04-25T06:51:44.022Z,15.70
2019-04-25T06:54:15.829Z,15.70
2019-04-25T06:56:44.320Z,15.70
2019-04-25T06:59:14.439Z,15.80
2019-04-25T07:01:43.985Z,15.80
2019-04-25T07:04:14.049Z,15.80
2019-04-25T07:06:43.790Z,15.90
2019-04-25T07:09:14.620Z,15.90
2019-04-25T07:11:44.045Z,16.00
2019-04-25T07:14:14.185Z,16.10
2019-04-25T07:16:43.365Z,16.10
2019-04-25T07:19:12.225Z,16.30
2019-04-25T07:21:41.137Z,16.40
2019-04-25T07:24:09.518Z,16.40
2019-04-25T07:26:58.062Z,16.50
2019-04-25T07:29:53.520Z,16.60
2019-04-25T07:32:30.516Z,16.60
2019-04-25T07:34:58.706Z,16.70
2019-04-25T07:37:27.665Z,16.80
2019-04-25T07:39:56.312Z,16.80
2019-04-25T07:42:25.935Z,16.90
2019-04-25T07:44:55.251Z,17.00
2019-04-25T07:47:24.326Z,17.20
2019-04-25T07:49:54.206Z,17.30
2019-04-25T07:52:23.411Z,17.40
2019-04-25T07:54:53.788Z,17.40
2019-04-25T07:57:23.752Z,17.50
2019-04-25T07:59:53.742Z,17.50
2019-04-25T08:02:23.304Z,17.60
2019-04-25T08:04:52.033Z,17.70
2019-04-25T08:07:20.825Z,17.70
2019-04-25T08:09:49.330Z,17.80
2019-04-25T08:12:17.763Z,17.90
2019-04-25T08:14:58.113Z,17.90
2019-04-25T08:17:45.075Z,18.10
2019-04-25T08:20:15.936Z,18.20
2019-04-25T08:22:55.685Z,18.30
2019-04-25T08:25:15.549Z,18.30
2019-04-25T08:27:45.064Z,18.50
2019-04-25T08:30:14.012Z,18.40
2019-04-25T08:32:44.084Z,18.40
2019-04-25T08:35:13.958Z,18.60
2019-04-25T08:37:44.064Z,18.70
2019-04-25T08:40:14.139Z,18.80
2019-04-25T08:42:44.163Z,18.70
2019-04-25T08:45:15.159Z,18.70
2019-04-25T08:47:43.960Z,18.80
2019-04-25T08:50:28.941Z,18.90
2019-04-25T08:52:50.090Z,18.90
2019-04-25T08:55:38.307Z,19.10
2019-04-25T08:58:27.943Z,19.20
2019-04-25T09:01:18.709Z,19.40
2019-04-25T09:03:53.894Z,19.40
2019-04-25T09:06:24.317Z,19.40
2019-04-25T09:08:54.242Z,19.60
2019-04-25T09:11:24.385Z,19.60
2019-04-25T09:13:53.781Z,19.70
2019-04-25T09:16:23.983Z,19.80
2019-04-25T09:18:54.532Z,19.80
2019-04-25T09:21:23.791Z,19.90
2019-04-25T09:23:53.571Z,19.90
2019-04-25T09:26:23.988Z,20.00
2019-04-25T09:28:53.648Z,20.20
2019-04-25T09:31:23.604Z,20.30
2019-04-25T09:33:54.970Z,20.30
2019-04-25T09:36:24.467Z,20.40
2019-04-25T09:38:57.457Z,20.30
2019-04-25T09:41:26.198Z,20.30
2019-04-25T09:43:58.565Z,20.50
2019-04-25T09:46:30.715Z,20.70
2019-04-25T09:49:05.154Z,20.80
2019-04-25T09:51:47.059Z,20.70
2019-04-25T09:54:47.407Z,20.70
2019-04-25T09:57:34.412Z,21.00
2019-04-25T10:00:04.510Z,20.90
2019-04-25T10:02:34.800Z,21.00
2019-04-25T10:05:04.238Z,21.20
2019-04-25T10:07:32.827Z,21.20
2019-04-25T10:10:01.408Z,21.20
2019-04-25T10:12:29.898Z,21.20
2019-04-25T10:15:44.751Z,21.20
2019-04-25T10:18:14.349Z,21.30
2019-04-25T10:20:44.871Z,21.50
2019-04-25T10:23:15.701Z,21.50
2019-04-25T10:25:45.158Z,21.50
2019-04-25T10:28:13.638Z,21.60
2019-04-25T10:30:42.938Z,21.70
2019-04-25T10:33:15.047Z,21.90
2019-04-25T10:35:52.078Z,21.90
2019-04-25T10:38:14.678Z,22.00
2019-04-25T10:40:47.166Z,22.00
2019-04-25T10:43:16.718Z,22.00
2019-04-25T10:45:46.378Z,22.10
2019-04-25T10:48:15.980Z,22.30
2019-04-25T10:50:45.963Z,22.40
2019-04-25T10:53:15.042Z,22.50
2019-04-25T10:55:45.471Z,22.50
2019-04-25T10:58:14.227Z,22.60
2019-04-25T11:00:47.443Z,22.70
2019-04-25T11:03:45.196Z,22.80
2019-04-25T11:06:19.822Z,22.90
2019-04-25T11:08:49.135Z,23.00
2019-04-25T11:11:19.527Z,23.20
2019-04-25T11:13:48.595Z,23.30
2019-04-25T11:16:17.226Z,23.50
2019-04-25T11:18:46.441Z,23.60
2019-04-25T11:21:15.684Z,23.60
2019-04-25T11:23:46.948Z,23.80
2019-04-25T11:26:14.409Z,23.80
2019-04-25T11:28:45.341Z,24.00
2019-04-25T11:31:23.531Z,24.10
2019-04-25T11:33:54.528Z,24.20
2019-04-25T11:36:25.029Z,24.20
2019-04-25T11:39:15.940Z,24.30
2019-04-25T11:41:46.239Z,24.40
2019-04-25T11:44:16.321Z,24.50
2019-04-25T11:46:45.793Z,24.50
2019-04-25T11:49:15.464Z,24.80
2019-04-25T11:51:45.069Z,25.00
2019-04-25T11:54:14.734Z,25.20
2019-04-25T11:56:45.808Z,25.30
2019-04-25T11:59:13.733Z,25.50
2019-04-25T12:01:45.391Z,25.70
2019-04-25T12:04:14.873Z,25.90
2019-04-25T12:06:47.363Z,25.90
2019-04-25T12:09:16.692Z,25.90
2019-04-25T12:11:46.835Z,26.00
2019-04-25T12:14:16.046Z,26.20
2019-04-25T12:16:48.476Z,26.20
2019-04-25T12:19:15.131Z,26.30
2019-04-25T12:21:43.725Z,26.40
2019-04-25T12:24:13.664Z,26.60
2019-04-25T12:26:45.113Z,26.60
2019-04-25T12:29:14.298Z,26.60
2019-04-25T12:31:45.455Z,26.60
2019-04-25T12:34:14.244Z,26.80
2019-04-25T12:36:44.401Z,27.20
2019-04-25T12:39:13.994Z,27.40
2019-04-25T12:41:44.224Z,27.50
2019-04-25T12:44:48.875Z,27.80
2019-04-25T12:47:21.041Z,28.00
2019-04-25T12:49:49.404Z,28.30
2019-04-25T12:52:17.780Z,28.50
2019-04-25T12:54:47.465Z,28.30
2019-04-25T12:57:17.177Z,28.20
2019-04-25T12:59:46.352Z,28.30
2019-04-25T13:02:15.943Z,28.30
2019-04-25T13:04:44.589Z,28.10
2019-04-25T13:07:13.729Z,28.20
2019-04-25T13:09:42.200Z,28.30
2019-04-25T13:12:10.815Z,28.40
2019-04-25T13:14:39.398Z,28.70
2019-04-25T13:17:08.722Z,29.00
2019-04-25T13:19:38.423Z,29.30
2019-04-25T13:22:07.984Z,29.10
2019-04-25T13:24:36.673Z,29.20
2019-04-25T13:27:13.882Z,29.00
2019-04-25T13:30:14.203Z,29.30
2019-04-25T13:33:11.117Z,29.60
2019-04-25T13:35:46.271Z,29.50
2019-04-25T13:38:14.998Z,29.50
2019-04-25T13:40:43.636Z,29.50
2019-04-25T13:43:13.103Z,29.70
2019-04-25T13:45:41.462Z,29.60
2019-04-25T13:48:09.838Z,29.60
2019-04-25T13:50:38.306Z,29.70
2019-04-25T13:53:06.798Z,29.70
2019-04-25T13:55:35.163Z,29.70
2019-04-25T13:58:05.094Z,29.40
2019-04-25T14:00:34.871Z,29.30
2019-04-25T14:03:03.471Z,29.30
2019-04-25T14:05:35.351Z,29.50
2019-04-25T14:08:05.646Z,29.70
2019-04-25T14:10:37.251Z,29.80
2019-04-25T14:13:05.632Z,30.00
2019-04-25T14:15:37.159Z,30.20
2019-04-25T14:18:15.499Z,29.80
2019-04-25T14:20:48.129Z,29.50
2019-04-25T14:23:17.310Z,29.40
2019-04-25T14:25:45.957Z,29.30
2019-04-25T14:28:14.955Z,29.20
2019-04-25T14:30:43.623Z,29.10
2019-04-25T14:33:13.568Z,29.20
2019-04-25T14:35:43.716Z,29.50
2019-04-25T14:38:13.773Z,29.70
2019-04-25T14:40:42.439Z,29.80
2019-04-25T14:43:10.816Z,29.70
2019-04-25T14:45:44.516Z,29.60
2019-04-25T14:48:09.968Z,29.50
2019-04-25T14:50:38.360Z,29.20
2019-04-25T14:53:06.826Z,28.90
2019-04-25T14:55:58.764Z,28.60
2019-04-25T14:58:30.377Z,28.60
2019-04-25T15:00:59.096Z,28.50
2019-04-25T15:03:27.450Z,28.40
2019-04-25T15:05:55.970Z,28.10
2019-04-25T15:08:24.955Z,28.00
2019-04-25T15:10:53.637Z,27.90
2019-04-25T15:13:24.230Z,27.80
2019-04-25T15:15:53.023Z,27.30
2019-04-25T15:18:23.532Z,27.30
2019-04-25T15:20:52.635Z,27.00
2019-04-25T15:23:21.255Z,27.00
2019-04-25T15:25:49.606Z,26.90
2019-04-25T15:28:18.182Z,26.80
2019-04-25T15:30:47.271Z,26.60
2019-04-25T15:33:15.848Z,26.50
2019-04-25T15:35:55.158Z,26.50
2019-04-25T15:38:44.713Z,26.40
2019-04-25T15:41:25.123Z,26.40
2019-04-25T15:44:12.072Z,26.20
2019-04-25T15:46:41.830Z,26.10
2019-04-25T15:49:10.404Z,25.90
2019-04-25T15:51:38.932Z,25.80
2019-04-25T15:54:07.366Z,25.80
2019-04-25T15:56:36.721Z,25.80
2019-04-25T15:59:06.619Z,25.80
2019-04-25T16:01:35.524Z,25.70
2019-04-25T16:04:04.011Z,25.60
2019-04-25T16:06:32.656Z,25.60
2019-04-25T16:09:01.075Z,25.60
2019-04-25T16:11:30.169Z,25.60
2019-04-25T16:13:58.815Z,25.50
2019-04-25T16:16:28.302Z,25.30
2019-04-25T16:18:57.027Z,25.20
2019-04-25T16:21:26.736Z,25.00
2019-04-25T16:23:56.000Z,25.00
2019-04-25T16:26:25.495Z,25.00
2019-04-25T16:28:54.067Z,24.90
2019-04-25T16:31:29.229Z,24.90
2019-04-25T16:34:00.140Z,25.00
2019-04-25T16:36:30.676Z,25.00
2019-04-25T16:38:59.355Z,25.00
2019-04-25T16:41:27.579Z,25.00
2019-04-25T16:44:02.067Z,25.00
2019-04-25T16:46:32.119Z,24.80
2019-04-25T16:49:00.619Z,24.80
2019-04-25T16:51:29.336Z,24.70
2019-04-25T16:53:58.117Z,24.60
2019-04-25T16:56:26.569Z,24.50
2019-04-25T16:58:54.944Z,24.40
2019-04-25T17:01:25.797Z,24.30
2019-04-25T17:03:57.638Z,24.20
2019-04-25T17:06:26.845Z,24.20
2019-04-25T17:08:55.251Z,24.20
2019-04-25T17:11:23.767Z,24.10
2019-04-25T17:13:59.420Z,24.10
2019-04-25T17:16:40.974Z,24.00
2019-04-25T17:19:13.709Z,24.00
2019-04-25T17:21:42.998Z,23.90
2019-04-25T17:24:11.687Z,23.80
2019-04-25T17:26:40.591Z,23.70
2019-04-25T17:29:13.259Z,23.70
2019-04-25T17:32:17.391Z,23.70
2019-04-25T17:35:11.316Z,23.60
2019-04-25T17:37:55.843Z,23.50
2019-04-25T17:40:27.896Z,23.50
2019-04-25T17:42:56.366Z,23.30
2019-04-25T17:45:30.967Z,23.20
2019-04-25T17:47:59.411Z,23.20
2019-04-25T17:50:27.789Z,23.10
2019-04-25T17:52:58.311Z,23.10
2019-04-25T17:55:26.685Z,23.00
2019-04-25T17:57:55.291Z,23.00
2019-04-25T18:00:43.815Z,22.90
2019-04-25T18:03:13.532Z,22.80
2019-04-25T18:05:42.102Z,22.70
2019-04-25T18:08:12.351Z,22.60
2019-04-25T18:10:41.929Z,22.50
2019-04-25T18:13:10.915Z,22.50
2019-04-25T18:15:58.177Z,22.40
2019-04-25T18:18:55.918Z,22.40
2019-04-25T18:21:24.571Z,22.40
2019-04-25T18:24:12.866Z,22.30
2019-04-25T18:26:50.375Z,22.20
2019-04-25T18:29:19.940Z,22.10
2019-04-25T18:31:48.490Z,22.00
2019-04-25T18:34:27.105Z,21.90
2019-04-25T18:37:14.203Z,21.90
2019-04-25T18:39:55.301Z,21.80
2019-04-25T18:42:44.200Z,21.70
2019-04-25T18:45:16.431Z,21.70
2019-04-25T18:47:44.894Z,21.60
2019-04-25T18:50:16.346Z,21.60
2019-04-25T18:52:57.129Z,21.50
2019-04-25T18:55:37.474Z,21.50
2019-04-25T18:58:16.809Z,21.50
2019-04-25T19:01:04.874Z,21.30
2019-04-25T19:03:44.315Z,21.20
2019-04-25T19:06:16.166Z,21.20
2019-04-25T19:08:45.002Z,21.10
2019-04-25T19:11:14.860Z,21.00
2019-04-25T19:13:43.397Z,20.90
2019-04-25T19:16:13.424Z,20.80
2019-04-25T19:18:44.442Z,20.80
2019-04-25T19:21:12.336Z,20.80
2019-04-25T19:23:41.800Z,20.70
2019-04-25T19:26:10.366Z,20.60
2019-04-25T19:28:40.076Z,20.60
2019-04-25T19:31:09.546Z,20.50
2019-04-25T19:33:40.195Z,20.50
2019-04-25T19:36:10.577Z,20.40
2019-04-25T19:38:39.556Z,20.30
2019-04-25T19:41:28.691Z,20.30
2019-04-25T19:44:07.422Z,20.20
2019-04-25T19:46:38.076Z,20.00
2019-04-25T19:49:07.859Z,20.00
2019-04-25T19:51:36.457Z,19.90
2019-04-25T19:54:05.495Z,19.90
2019-04-25T19:56:34.071Z,19.80
2019-04-25T19:59:02.635Z,19.80
2019-04-25T20:01:40.396Z,19.90
2019-04-25T20:04:18.588Z,19.80
2019-04-25T20:07:07.329Z,19.80
2019-04-25T20:10:01.524Z,19.70
2019-04-25T20:12:40.380Z,19.60
2019-04-25T20:15:09.210Z,19.50
2019-04-25T20:17:39.503Z,19.40
2019-04-25T20:20:08.649Z,19.30
2019-04-25T20:22:38.829Z,19.20
2019-04-25T20:25:08.468Z,19.20
2019-04-25T20:27:36.960Z,19.10
2019-04-25T20:30:06.493Z,19.10
2019-04-25T20:32:35.222Z,19.10
2019-04-25T20:35:05.707Z,19.00
2019-04-25T20:37:34.163Z,18.90
2019-04-25T20:40:02.556Z,18.80
2019-04-25T20:42:31.059Z,18.80
2019-04-25T20:44:59.458Z,18.80
2019-04-25T20:47:28.042Z,18.80
2019-04-25T20:49:57.765Z,18.70
2019-04-25T20:52:26.519Z,18.60
2019-04-25T20:54:56.978Z,18.70
2019-04-25T20:57:25.604Z,18.70
2019-04-25T20:59:54.385Z,18.60
2019-04-25T21:02:22.860Z,18.70
2019-04-25T21:04:52.156Z,18.70
2019-04-25T21:07:20.941Z,18.80
2019-04-25T21:09:50.014Z,18.80
2019-04-25T21:12:18.520Z,18.80
2019-04-25T21:15:15.866Z,18.80
2019-04-25T21:17:54.746Z,18.70
2019-04-25T21:20:23.189Z,18.70
2019-04-25T21:22:51.838Z,18.70
2019-04-25T21:25:20.342Z,18.70
2019-04-25T21:27:50.157Z,18.70
2019-04-25T21:30:18.826Z,18.70
2019-04-25T21:32:55.500Z,18.70
2019-04-25T21:35:24.647Z,18.70
2019-04-25T21:37:53.566Z,18.70
2019-04-25T21:40:33.801Z,18.70
2019-04-25T21:43:08.122Z,18.70
2019-04-25T21:45:36.720Z,18.70
2019-04-25T21:48:05.583Z,18.70
2019-04-25T21:50:34.442Z,18.70
2019-04-25T21:53:03.404Z,18.70
2019-04-25T21:55:32.190Z,18.70
2019-04-25T21:58:01.146Z,18.70
2019-04-25T22:00:48.860Z,18.70
2019-04-25T22:03:20.814Z,18.60
2019-04-25T22:05:49.635Z,18.60
2019-04-25T22:08:18.089Z,18.50
2019-04-25T22:10:46.453Z,18.50
2019-04-25T22:13:17.173Z,18.60
2019-04-25T22:15:45.235Z,18.60
2019-04-25T22:18:14.167Z,18.50
2019-04-25T22:20:42.546Z,18.50
2019-04-25T22:23:11.265Z,18.40
2019-04-25T22:25:40.128Z,18.40
2019-04-25T22:28:09.117Z,18.30
2019-04-25T22:30:39.500Z,18.30
2019-04-25T22:33:28.453Z,18.30
2019-04-25T22:36:02.146Z,18.20
2019-04-25T22:38:30.717Z,18.20
2019-04-25T22:40:59.205Z,18.20
2019-04-25T22:43:30.690Z,18.10
2019-04-25T22:45:59.678Z,18.10
2019-04-25T22:48:48.876Z,18.10
2019-04-25T22:51:17.791Z,18.00
2019-04-25T22:53:47.106Z,18.00
2019-04-25T22:56:15.995Z,17.90
2019-04-25T22:58:44.697Z,17.80
2019-04-25T23:01:44.636Z,17.70
2019-04-25T23:04:36.867Z,17.70
2019-04-25T23:07:05.921Z,17.60
2019-04-25T23:09:35.971Z,17.60
2019-04-25T23:12:06.638Z,17.50
2019-04-25T23:14:35.337Z,17.50
2019-04-25T23:17:05.053Z,17.40
2019-04-25T23:19:34.537Z,17.40
2019-04-25T23:22:04.225Z,17.40
2019-04-25T23:24:35.936Z,17.30
2019-04-25T23:27:12.894Z,17.30
2019-04-25T23:29:41.272Z,17.30
2019-04-25T23:32:12.430Z,17.30
2019-04-25T23:34:40.923Z,17.20
2019-04-25T23:37:09.433Z,17.20
2019-04-25T23:39:38.114Z,17.10
2019-04-25T23:42:07.243Z,17.10
2019-04-25T23:44:36.002Z,17.00
2019-04-25T23:47:04.489Z,17.10
2019-04-25T23:49:32.966Z,17.10
2019-04-25T23:52:01.933Z,17.10
2019-04-25T23:54:30.317Z,17.10
2019-04-25T23:56:58.952Z,17.10
2019-04-25T23:59:27.314Z,17.10
